createdAt,value
2018-09-18T00:00:02.446Z,16.1
2018-09-18T00:01:04.561Z,16.2
2018-09-18T00:02:06.651Z,16.2
2018-09-18T00:03:08.747Z,16.2
2018-09-18T00:04:10.836Z,16.2
2018-09-18T00:05:13.234Z,16.2
2018-09-18T00:06:15.708Z,16.2
2018-09-18T00:07:17.804Z,16.2
2018-09-18T00:08:19.909Z,16.2
2018-09-18T00:09:21.993Z,16.2
2018-09-18T00:10:24.100Z,16.2
2018-09-18T00:11:26.598Z,16.2
2018-09-18T00:12:28.695Z,16.2
2018-09-18T00:13:30.778Z,16.2
2018-09-18T00:14:32.884Z,16.2
2018-09-18T00:15:35.556Z,16.2
2018-09-18T00:16:37.649Z,16.2
2018-09-18T00:17:39.760Z,16.2
2018-09-18T00:18:41.846Z,16.2
2018-09-18T00:19:43.939Z,16.2
2018-09-18T00:20:46.043Z,16.2
2018-09-18T00:21:48.137Z,16.3
2018-09-18T00:22:50.222Z,16.3
2018-09-18T00:23:52.318Z,16.3
2018-09-18T00:24:54.406Z,16.2
2018-09-18T00:25:56.507Z,16.2
2018-09-18T00:26:58.617Z,16.2
2018-09-18T00:28:00.721Z,16.2
2018-09-18T00:29:03.098Z,16.2
2018-09-18T00:30:05.209Z,16.2
2018-09-18T00:31:07.300Z,16.2
2018-09-18T00:32:09.393Z,16.2
2018-09-18T00:33:11.494Z,16.2
2018-09-18T00:34:13.867Z,16.2
2018-09-18T00:35:16.356Z,16.1
2018-09-18T00:36:18.737Z,16.1
2018-09-18T00:37:20.837Z,16.2
2018-09-18T00:38:23.323Z,16.2
2018-09-18T00:39:25.433Z,16.2
2018-09-18T00:40:27.914Z,16.2
2018-09-18T00:41:30.002Z,16.2
2018-09-18T00:42:32.109Z,16.2
2018-09-18T00:43:34.192Z,16.2
2018-09-18T00:44:36.289Z,16.2
2018-09-18T00:45:38.377Z,16.2
2018-09-18T00:46:40.486Z,16.2
2018-09-18T00:47:42.575Z,16.3
2018-09-18T00:48:44.670Z,16.3
2018-09-18T00:49:46.775Z,16.3
2018-09-18T00:50:49.243Z,16.3
2018-09-18T00:51:51.347Z,16.3
2018-09-18T00:52:53.443Z,16.3
2018-09-18T00:53:55.822Z,16.3
2018-09-18T00:54:57.914Z,16.3
2018-09-18T00:56:00.307Z,16.3
2018-09-18T00:57:02.788Z,16.3
2018-09-18T00:58:04.889Z,16.3
2018-09-18T00:59:06.987Z,16.2
2018-09-18T01:00:09.074Z,16.2
2018-09-18T01:01:11.168Z,16.2
2018-09-18T01:02:13.274Z,16.3
2018-09-18T01:03:15.357Z,16.2
2018-09-18T01:04:17.754Z,16.3
2018-09-18T01:05:19.855Z,16.2
2018-09-18T01:06:22.236Z,16.2
2018-09-18T01:07:24.351Z,16.2
2018-09-18T01:08:26.441Z,16.3
2018-09-18T01:09:28.547Z,16.2
2018-09-18T01:10:30.643Z,16.2
2018-09-18T01:11:32.753Z,16.2
2018-09-18T01:12:34.834Z,16.2
2018-09-18T01:13:36.933Z,16.3
2018-09-18T01:14:39.342Z,16.3
2018-09-18T01:15:41.440Z,16.2
2018-09-18T01:16:43.531Z,16.2
2018-09-18T01:17:45.936Z,16.2
2018-09-18T01:18:48.032Z,16.2
2018-09-18T01:19:50.141Z,16.2
2018-09-18T01:20:52.225Z,16.2
2018-09-18T01:21:54.324Z,16.2
2018-09-18T01:22:56.425Z,16.2
2018-09-18T01:23:58.511Z,16.1
2018-09-18T01:25:00.615Z,16.1
2018-09-18T01:26:02.715Z,16.1
2018-09-18T01:27:04.805Z,16.1
2018-09-18T01:28:06.898Z,16.1
2018-09-18T01:29:09.389Z,16.1
2018-09-18T01:30:11.775Z,16.1
2018-09-18T01:31:13.879Z,16.1
2018-09-18T01:32:15.978Z,16.1
2018-09-18T01:33:18.061Z,16.1
2018-09-18T01:34:20.155Z,16
2018-09-18T01:35:22.263Z,16
2018-09-18T01:36:24.344Z,16
2018-09-18T01:37:26.445Z,16
2018-09-18T01:38:28.552Z,15.9
2018-09-18T01:39:30.643Z,15.9
2018-09-18T01:40:32.750Z,15.9
2018-09-18T01:41:35.151Z,15.9
2018-09-18T01:42:37.249Z,15.9
2018-09-18T01:43:39.359Z,15.9
2018-09-18T01:44:41.835Z,15.9
2018-09-18T01:45:43.920Z,15.9
2018-09-18T01:46:46.020Z,15.8
2018-09-18T01:47:48.122Z,15.8
2018-09-18T01:48:50.203Z,15.8
2018-09-18T01:49:52.702Z,15.8
2018-09-18T01:50:54.794Z,15.8
2018-09-18T01:51:56.898Z,15.8
2018-09-18T01:52:58.982Z,15.8
2018-09-18T01:54:01.396Z,15.8
2018-09-18T01:55:03.496Z,15.7
2018-09-18T01:56:05.592Z,15.7
2018-09-18T01:57:07.677Z,15.7
2018-09-18T01:58:09.783Z,15.7
2018-09-18T01:59:11.881Z,15.8
2018-09-18T02:00:13.974Z,15.7
2018-09-18T02:01:16.071Z,15.7
2018-09-18T02:02:18.180Z,15.7
2018-09-18T02:03:20.275Z,15.7
2018-09-18T02:04:22.380Z,15.7
2018-09-18T02:05:24.484Z,15.7
2018-09-18T02:06:26.568Z,15.7
2018-09-18T02:07:28.663Z,15.7
2018-09-18T02:08:30.768Z,15.7
2018-09-18T02:09:33.136Z,15.7
2018-09-18T02:10:35.524Z,15.7
2018-09-18T02:11:37.620Z,15.7
2018-09-18T02:12:39.705Z,15.7
2018-09-18T02:13:41.815Z,15.7
2018-09-18T02:14:43.907Z,15.8
2018-09-18T02:15:46.005Z,15.7
2018-09-18T02:16:48.092Z,15.8
2018-09-18T02:17:50.199Z,15.7
2018-09-18T02:18:52.283Z,15.8
2018-09-18T02:19:54.379Z,15.8
2018-09-18T02:20:56.474Z,15.8
2018-09-18T02:21:58.556Z,15.8
2018-09-18T02:23:00.663Z,15.7
2018-09-18T02:24:03.158Z,15.7
2018-09-18T02:25:05.258Z,15.7
2018-09-18T02:26:07.338Z,15.7
2018-09-18T02:27:09.444Z,15.7
2018-09-18T02:28:11.537Z,15.6
2018-09-18T02:29:13.632Z,15.6
2018-09-18T02:30:16.042Z,15.6
2018-09-18T02:31:18.144Z,15.6
2018-09-18T02:32:20.240Z,15.6
2018-09-18T02:33:22.331Z,15.6
2018-09-18T02:34:24.429Z,15.6
2018-09-18T02:35:26.535Z,15.6
2018-09-18T02:36:28.628Z,15.6
2018-09-18T02:37:30.738Z,15.5
2018-09-18T02:38:32.828Z,15.5
2018-09-18T02:39:34.921Z,15.5
2018-09-18T02:40:37.017Z,15.5
2018-09-18T02:41:39.129Z,15.5
2018-09-18T02:42:41.209Z,15.5
2018-09-18T02:43:43.317Z,15.5
2018-09-18T02:44:45.418Z,15.5
2018-09-18T02:45:47.510Z,15.5
2018-09-18T02:46:49.628Z,15.5
2018-09-18T02:47:51.720Z,15.5
2018-09-18T02:48:53.823Z,15.5
2018-09-18T02:49:56.215Z,15.4
2018-09-18T02:50:58.616Z,15.4
2018-09-18T02:52:01.096Z,15.4
2018-09-18T02:53:03.198Z,15.4
2018-09-18T02:54:05.589Z,15.4
2018-09-18T02:55:07.672Z,15.4
2018-09-18T02:56:10.172Z,15.4
2018-09-18T02:57:12.263Z,15.3
2018-09-18T02:58:14.657Z,15.3
2018-09-18T02:59:16.744Z,15.3
2018-09-18T03:00:18.848Z,15.3
2018-09-18T03:01:20.951Z,15.3
2018-09-18T03:02:23.326Z,15.3
2018-09-18T03:03:25.434Z,15.3
2018-09-18T03:04:27.528Z,15.3
2018-09-18T03:05:29.625Z,15.2
2018-09-18T03:06:32.036Z,15.2
2018-09-18T03:07:34.132Z,15.2
2018-09-18T03:08:36.215Z,15.2
2018-09-18T03:09:38.356Z,15.2
2018-09-18T03:10:40.405Z,15.2
2018-09-18T03:11:42.818Z,15.2
2018-09-18T03:12:44.888Z,15.1
2018-09-18T03:13:46.983Z,15.1
2018-09-18T03:14:49.070Z,15.1
2018-09-18T03:15:51.183Z,15.1
2018-09-18T03:16:53.275Z,15.1
2018-09-18T03:17:55.756Z,15.1
2018-09-18T03:18:58.540Z,15.1
2018-09-18T03:20:00.921Z,15.1
2018-09-18T03:21:03.813Z,15
2018-09-18T03:22:06.097Z,15
2018-09-18T03:23:08.201Z,15
2018-09-18T03:24:10.282Z,15
2018-09-18T03:25:12.388Z,15
2018-09-18T03:26:14.771Z,15
2018-09-18T03:27:17.198Z,15
2018-09-18T03:28:19.951Z,14.9
2018-09-18T03:29:22.040Z,15
2018-09-18T03:30:24.138Z,15
2018-09-18T03:31:26.516Z,14.9
2018-09-18T03:32:28.942Z,14.9
2018-09-18T03:33:31.429Z,14.9
2018-09-18T03:34:33.528Z,14.9
2018-09-18T03:35:35.630Z,14.9
2018-09-18T03:36:37.709Z,14.9
2018-09-18T03:37:39.816Z,14.8
2018-09-18T03:38:41.918Z,14.8
2018-09-18T03:39:44.289Z,14.8
2018-09-18T03:40:46.385Z,14.8
2018-09-18T03:41:48.806Z,14.8
2018-09-18T03:42:51.287Z,14.8
2018-09-18T03:43:53.384Z,14.8
2018-09-18T03:44:55.479Z,14.8
2018-09-18T03:45:57.566Z,14.8
2018-09-18T03:46:59.665Z,14.8
2018-09-18T03:48:01.762Z,14.8
2018-09-18T03:49:04.159Z,14.8
2018-09-18T03:50:06.249Z,14.8
2018-09-18T03:51:08.340Z,14.7
2018-09-18T03:52:10.452Z,14.7
2018-09-18T03:53:12.836Z,14.7
2018-09-18T03:54:14.939Z,14.7
2018-09-18T03:55:17.035Z,14.7
2018-09-18T03:56:19.433Z,14.7
2018-09-18T03:57:21.959Z,14.7
2018-09-18T03:58:24.066Z,14.7
2018-09-18T03:59:26.164Z,14.7
2018-09-18T04:00:28.255Z,14.7
2018-09-18T04:01:30.365Z,14.6
2018-09-18T04:02:33.045Z,14.6
2018-09-18T04:03:35.438Z,14.6
2018-09-18T04:04:38.105Z,14.6
2018-09-18T04:05:40.503Z,14.6
2018-09-18T04:06:42.596Z,14.6
2018-09-18T04:07:44.690Z,14.6
2018-09-18T04:08:46.785Z,14.6
2018-09-18T04:09:48.870Z,14.6
2018-09-18T04:10:50.978Z,14.6
2018-09-18T04:11:53.390Z,14.6
2018-09-18T04:12:55.485Z,14.5
2018-09-18T04:13:57.581Z,14.5
2018-09-18T04:14:59.679Z,14.5
2018-09-18T04:16:02.179Z,14.5
2018-09-18T04:17:04.577Z,14.5
2018-09-18T04:18:06.672Z,14.4
2018-09-18T04:19:08.758Z,14.4
2018-09-18T04:20:10.851Z,14.4
2018-09-18T04:21:13.249Z,14.4
2018-09-18T04:22:15.335Z,14.4
2018-09-18T04:23:18.033Z,14.4
2018-09-18T04:24:20.131Z,14.4
2018-09-18T04:25:22.632Z,14.4
2018-09-18T04:26:24.999Z,14.4
2018-09-18T04:27:27.382Z,14.4
2018-09-18T04:28:29.478Z,14.4
2018-09-18T04:29:32.189Z,14.4
2018-09-18T04:30:34.724Z,14.4
2018-09-18T04:31:36.834Z,14.4
2018-09-18T04:32:38.931Z,14.4
2018-09-18T04:33:41.408Z,14.4
2018-09-18T04:34:43.820Z,14.4
2018-09-18T04:35:45.904Z,14.4
2018-09-18T04:36:48.709Z,14.4
2018-09-18T04:37:50.805Z,14.3
2018-09-18T04:38:53.205Z,14.3
2018-09-18T04:39:55.290Z,14.3
2018-09-18T04:40:57.777Z,14.3
2018-09-18T04:42:00.177Z,14.3
2018-09-18T04:43:02.265Z,14.3
2018-09-18T04:44:04.373Z,14.3
2018-09-18T04:45:06.470Z,14.2
2018-09-18T04:46:08.949Z,14.2
2018-09-18T04:47:11.040Z,14.2
2018-09-18T04:48:13.532Z,14.2
2018-09-18T04:49:15.631Z,14.2
2018-09-18T04:50:17.738Z,14.2
2018-09-18T04:51:19.832Z,14.2
2018-09-18T04:52:22.204Z,14.2
2018-09-18T04:53:24.686Z,14.2
2018-09-18T04:54:26.790Z,14.2
2018-09-18T04:55:29.182Z,14.2
2018-09-18T04:56:31.999Z,14.2
2018-09-18T04:57:34.097Z,14.2
2018-09-18T04:58:36.181Z,14.1
2018-09-18T04:59:38.287Z,14.2
2018-09-18T05:00:40.384Z,14.2
2018-09-18T05:01:42.765Z,14.1
2018-09-18T05:02:45.136Z,14.1
2018-09-18T05:03:47.231Z,14.1
2018-09-18T05:04:49.632Z,14.1
2018-09-18T05:05:51.722Z,14.1
2018-09-18T05:06:53.808Z,14.1
2018-09-18T05:07:55.918Z,14.1
2018-09-18T05:08:58.297Z,14.1
2018-09-18T05:10:00.394Z,14.1
2018-09-18T05:11:02.774Z,14.1
2018-09-18T05:12:04.877Z,14.2
2018-09-18T05:13:07.258Z,14.2
2018-09-18T05:14:09.818Z,14.2
2018-09-18T05:15:12.313Z,14.2
2018-09-18T05:16:14.395Z,14.2
2018-09-18T05:17:16.494Z,14.2
2018-09-18T05:18:18.883Z,14.2
2018-09-18T05:19:21.677Z,14.2
2018-09-18T05:20:24.351Z,14.2
2018-09-18T05:21:26.769Z,14.2
2018-09-18T05:22:29.143Z,14.2
2018-09-18T05:23:31.551Z,14.2
2018-09-18T05:24:33.932Z,14.2
2018-09-18T05:25:36.190Z,14.2
2018-09-18T05:26:38.398Z,14.2
2018-09-18T05:27:40.502Z,14.2
2018-09-18T05:28:42.876Z,14.2
2018-09-18T05:29:45.362Z,14.3
2018-09-18T05:30:47.768Z,14.3
2018-09-18T05:31:50.142Z,14.3
2018-09-18T05:32:52.563Z,14.3
2018-09-18T05:33:54.654Z,14.3
2018-09-18T05:34:57.346Z,14.3
2018-09-18T05:35:59.818Z,14.4
2018-09-18T05:37:01.923Z,14.4
2018-09-18T05:38:04.005Z,14.4
2018-09-18T05:39:06.102Z,14.4
2018-09-18T05:40:08.205Z,14.5
2018-09-18T05:41:10.289Z,14.5
2018-09-18T05:42:12.392Z,14.5
2018-09-18T05:43:14.489Z,14.6
2018-09-18T05:44:16.590Z,14.6
2018-09-18T05:45:18.675Z,14.6
2018-09-18T05:46:20.776Z,14.7
2018-09-18T05:47:22.867Z,14.7
2018-09-18T05:48:25.245Z,14.7
2018-09-18T05:49:27.354Z,14.7
2018-09-18T05:50:29.441Z,14.7
2018-09-18T05:51:31.531Z,14.7
2018-09-18T05:52:33.633Z,14.8
2018-09-18T05:53:35.728Z,14.8
2018-09-18T05:54:37.813Z,14.8
2018-09-18T05:55:40.202Z,14.9
2018-09-18T05:56:42.291Z,14.9
2018-09-18T05:57:44.383Z,14.9
2018-09-18T05:58:46.880Z,15
2018-09-18T05:59:48.973Z,15
2018-09-18T06:00:51.447Z,15
2018-09-18T06:01:53.553Z,15.1
2018-09-18T06:02:55.649Z,15.1
2018-09-18T06:03:57.735Z,15.1
2018-09-18T06:05:00.168Z,15.1
2018-09-18T06:06:02.258Z,15.2
2018-09-18T06:07:04.350Z,15.2
2018-09-18T06:08:06.447Z,15.2
2018-09-18T06:09:08.938Z,15.3
2018-09-18T06:10:11.021Z,15.3
2018-09-18T06:11:13.127Z,15.3
2018-09-18T06:12:15.221Z,15.3
2018-09-18T06:13:17.311Z,15.4
2018-09-18T06:14:19.733Z,15.4
2018-09-18T06:15:21.822Z,15.4
2018-09-18T06:16:23.916Z,15.4
2018-09-18T06:17:26.002Z,15.4
2018-09-18T06:18:28.112Z,15.4
2018-09-18T06:19:30.203Z,15.4
2018-09-18T06:20:33.046Z,15.4
2018-09-18T06:21:35.425Z,15.4
2018-09-18T06:22:37.538Z,15.5
2018-09-18T06:23:39.622Z,15.5
2018-09-18T06:24:41.714Z,15.5
2018-09-18T06:25:43.817Z,15.5
2018-09-18T06:26:45.913Z,15.5
2018-09-18T06:27:48.008Z,15.5
2018-09-18T06:28:50.397Z,15.6
2018-09-18T06:29:52.484Z,15.6
2018-09-18T06:30:54.579Z,15.6
2018-09-18T06:31:56.685Z,15.6
2018-09-18T06:32:58.784Z,15.6
2018-09-18T06:34:00.867Z,15.7
2018-09-18T06:35:03.385Z,15.7
2018-09-18T06:36:05.476Z,15.7
2018-09-18T06:37:07.566Z,15.7
2018-09-18T06:38:10.058Z,15.8
2018-09-18T06:39:12.141Z,15.8
2018-09-18T06:40:14.247Z,15.8
2018-09-18T06:41:16.643Z,15.8
2018-09-18T06:42:18.761Z,15.8
2018-09-18T06:43:21.117Z,15.9
2018-09-18T06:44:23.228Z,15.9
2018-09-18T06:45:25.322Z,15.9
2018-09-18T06:46:27.726Z,15.9
2018-09-18T06:47:29.836Z,16
2018-09-18T06:48:31.920Z,16
2018-09-18T06:49:34.016Z,16
2018-09-18T06:50:36.113Z,16.1
2018-09-18T06:51:38.512Z,16.1
2018-09-18T06:52:40.602Z,16.1
2018-09-18T06:53:43.002Z,16.2
2018-09-18T06:54:45.814Z,16.2
2018-09-18T06:55:47.894Z,16.2
2018-09-18T06:56:49.996Z,16.3
2018-09-18T06:57:52.095Z,16.3
2018-09-18T06:58:54.489Z,16.4
2018-09-18T06:59:56.586Z,16.4
2018-09-18T07:00:58.674Z,16.4
2018-09-18T07:02:01.062Z,16.5
2018-09-18T07:03:03.152Z,16.5
2018-09-18T07:04:05.253Z,16.6
2018-09-18T07:05:07.355Z,16.6
2018-09-18T07:06:09.453Z,16.7
2018-09-18T07:07:11.950Z,16.8
2018-09-18T07:08:14.066Z,16.8
2018-09-18T07:09:16.468Z,16.9
2018-09-18T07:10:18.565Z,17
2018-09-18T07:11:20.673Z,17
2018-09-18T07:12:22.761Z,17.1
2018-09-18T07:13:25.176Z,17.2
2018-09-18T07:14:27.277Z,17.2
2018-09-18T07:15:29.384Z,17.3
2018-09-18T07:16:31.781Z,17.4
2018-09-18T07:17:33.891Z,17.5
2018-09-18T07:18:35.994Z,17.5
2018-09-18T07:19:38.089Z,17.6
2018-09-18T07:20:40.797Z,17.7
2018-09-18T07:21:42.887Z,17.8
2018-09-18T07:22:44.987Z,17.8
2018-09-18T07:23:47.381Z,17.9
2018-09-18T07:24:49.541Z,18
2018-09-18T07:25:51.580Z,18
2018-09-18T07:26:53.693Z,18
2018-09-18T07:27:56.090Z,18.1
2018-09-18T07:28:58.179Z,18.1
2018-09-18T07:30:00.579Z,18.1
2018-09-18T07:31:02.966Z,18.2
2018-09-18T07:32:05.060Z,18.3
2018-09-18T07:33:07.556Z,18.3
2018-09-18T07:34:09.668Z,18.4
2018-09-18T07:35:11.767Z,18.4
2018-09-18T07:36:13.897Z,18.5
2018-09-18T07:37:15.967Z,18.5
2018-09-18T07:38:18.080Z,18.6
2018-09-18T07:39:20.181Z,18.7
2018-09-18T07:40:22.274Z,18.8
2018-09-18T07:41:24.680Z,18.9
2018-09-18T07:42:27.067Z,19
2018-09-18T07:43:29.166Z,19.1
2018-09-18T07:44:31.282Z,19.3
2018-09-18T07:45:33.371Z,19.3
2018-09-18T07:46:35.484Z,19.5
2018-09-18T07:47:37.581Z,19.6
2018-09-18T07:48:39.985Z,19.7
2018-09-18T07:49:42.069Z,19.8
2018-09-18T07:50:44.572Z,19.9
2018-09-18T07:51:47.066Z,20
2018-09-18T07:52:49.555Z,20.1
2018-09-18T07:53:51.975Z,20.1
2018-09-18T07:54:54.358Z,20.3
2018-09-18T07:55:56.465Z,20.6
2018-09-18T07:56:58.565Z,20.5
2018-09-18T07:58:00.985Z,20.7
2018-09-18T07:59:03.367Z,20.9
2018-09-18T08:00:05.472Z,21
2018-09-18T08:01:07.582Z,21.1
2018-09-18T08:02:09.670Z,21.2
2018-09-18T08:03:12.220Z,21.3
2018-09-18T08:04:14.256Z,21.4
2018-09-18T08:05:16.351Z,21.5
2018-09-18T08:06:18.740Z,21.7
2018-09-18T08:07:20.857Z,21.9
2018-09-18T08:08:23.251Z,21.9
2018-09-18T08:09:25.362Z,22.1
2018-09-18T08:10:27.468Z,22.1
2018-09-18T08:11:29.951Z,22.2
2018-09-18T08:12:32.059Z,22.3
2018-09-18T08:13:34.182Z,22.2
2018-09-18T08:14:36.566Z,22.3
2018-09-18T08:15:38.675Z,22.6
2018-09-18T08:16:41.183Z,22.6
2018-09-18T08:17:43.278Z,22.8
2018-09-18T08:18:46.207Z,23
2018-09-18T08:19:48.764Z,23.1
2018-09-18T08:20:50.769Z,23.2
2018-09-18T08:21:52.881Z,23.2
2018-09-18T08:22:54.985Z,23.4
2018-09-18T08:23:57.081Z,23.5
2018-09-18T08:24:59.242Z,23.5
2018-09-18T08:26:01.299Z,23.7
2018-09-18T08:27:03.393Z,23.7
2018-09-18T08:28:05.901Z,23.8
2018-09-18T08:29:08.009Z,24
2018-09-18T08:30:10.539Z,23.9
2018-09-18T08:31:12.634Z,24
2018-09-18T08:32:14.755Z,24
2018-09-18T08:33:17.547Z,24.2
2018-09-18T08:34:19.653Z,24.3
2018-09-18T08:35:21.772Z,24.5
2018-09-18T08:36:23.874Z,24.8
2018-09-18T08:37:26.307Z,24.8
2018-09-18T08:38:28.424Z,24.8
2018-09-18T08:39:30.537Z,25
2018-09-18T08:40:32.652Z,25.1
2018-09-18T08:41:34.772Z,25.4
2018-09-18T08:42:37.256Z,25.4
2018-09-18T08:43:39.363Z,25.2
2018-09-18T08:44:41.494Z,25.5
2018-09-18T08:45:43.619Z,25.3
2018-09-18T08:46:46.019Z,25.5
2018-09-18T08:47:48.184Z,25.9
2018-09-18T08:48:50.285Z,26.1
2018-09-18T08:49:52.721Z,25.9
2018-09-18T08:50:55.140Z,25.9
2018-09-18T08:51:57.463Z,25.9
2018-09-18T08:52:59.800Z,26.2
2018-09-18T08:54:02.883Z,26.2
2018-09-18T08:55:05.046Z,26.2
2018-09-18T08:56:07.548Z,26.4
2018-09-18T08:57:09.659Z,26.6
2018-09-18T08:58:12.105Z,26.3
2018-09-18T08:59:14.329Z,26.8
2018-09-18T09:00:16.448Z,26.6
2018-09-18T09:01:18.681Z,27
2018-09-18T09:02:20.818Z,26.9
2018-09-18T09:03:23.013Z,26.7
2018-09-18T09:04:25.091Z,26.7
2018-09-18T09:05:27.667Z,26.8
2018-09-18T09:06:30.234Z,26.8
2018-09-18T09:07:32.763Z,26.8
2018-09-18T09:08:35.025Z,27
2018-09-18T09:09:36.997Z,27.1
2018-09-18T09:10:39.607Z,27.2
2018-09-18T09:11:41.958Z,27.3
2018-09-18T09:12:44.492Z,27.4
2018-09-18T09:13:46.771Z,27.4
2018-09-18T09:14:49.028Z,27.3
2018-09-18T09:15:51.036Z,27.6
2018-09-18T09:16:53.169Z,27.8
2018-09-18T09:17:56.024Z,28
2018-09-18T09:18:58.139Z,28
2018-09-18T09:20:00.232Z,28.1
2018-09-18T09:21:03.331Z,28
2018-09-18T09:22:05.445Z,28
2018-09-18T09:23:08.034Z,27.9
2018-09-18T09:24:11.097Z,27.5
2018-09-18T09:25:13.194Z,27.8
2018-09-18T09:26:15.467Z,27.8
2018-09-18T09:27:17.875Z,27.9
2018-09-18T09:28:20.354Z,27.5
2018-09-18T09:29:22.477Z,27.8
2018-09-18T09:30:24.610Z,28.1
2018-09-18T09:31:27.575Z,28.4
2018-09-18T09:32:29.698Z,28.4
2018-09-18T09:33:32.122Z,28.5
2018-09-18T09:34:34.575Z,28.5
2018-09-18T09:35:36.990Z,28.6
2018-09-18T09:36:39.102Z,28.7
2018-09-18T09:37:41.240Z,28.5
2018-09-18T09:38:43.376Z,28.6
2018-09-18T09:39:45.785Z,28.6
2018-09-18T09:40:48.184Z,28.6
2018-09-18T09:41:50.328Z,28.8
2018-09-18T09:42:52.425Z,28.9
2018-09-18T09:43:55.052Z,29.1
2018-09-18T09:44:57.183Z,29.1
2018-09-18T09:45:59.242Z,29.2
2018-09-18T09:47:01.668Z,29.1
2018-09-18T09:48:03.810Z,29.2
2018-09-18T09:49:06.237Z,29.2
2018-09-18T09:50:08.369Z,29
2018-09-18T09:51:10.542Z,29.1
2018-09-18T09:52:12.621Z,29.1
2018-09-18T09:53:15.019Z,29
2018-09-18T09:54:17.176Z,29
2018-09-18T09:55:19.292Z,28.9
2018-09-18T09:56:21.412Z,28.9
2018-09-18T09:57:23.536Z,28.9
2018-09-18T09:58:25.643Z,28.8
2018-09-18T09:59:27.775Z,28.9
2018-09-18T10:00:29.892Z,29.2
2018-09-18T10:01:32.028Z,29.2
2018-09-18T10:02:34.432Z,29.2
2018-09-18T10:03:36.563Z,29.3
2018-09-18T10:04:40.631Z,29.4
2018-09-18T10:05:42.745Z,29.3
2018-09-18T10:06:45.158Z,29.6
2018-09-18T10:07:47.290Z,29.6
2018-09-18T10:08:49.410Z,29.9
2018-09-18T10:09:51.542Z,29.6
2018-09-18T10:10:54.482Z,29.9
2018-09-18T10:11:57.639Z,30
2018-09-18T10:13:00.047Z,29.9
2018-09-18T10:14:02.554Z,29.8
2018-09-18T10:15:04.691Z,29.9
2018-09-18T10:16:06.810Z,29.5
2018-09-18T10:17:08.927Z,29.8
2018-09-18T10:18:11.461Z,29.7
2018-09-18T10:19:13.495Z,29.9
2018-09-18T10:20:15.617Z,30
2018-09-18T10:21:17.747Z,30.1
2018-09-18T10:22:19.858Z,29.7
2018-09-18T10:23:21.982Z,29.7
2018-09-18T10:24:24.118Z,29.5
2018-09-18T10:25:26.857Z,29.4
2018-09-18T10:26:29.081Z,29.4
2018-09-18T10:27:31.109Z,29.6
2018-09-18T10:28:33.237Z,29.6
2018-09-18T10:29:35.736Z,29.5
2018-09-18T10:30:38.285Z,29.6
2018-09-18T10:31:40.790Z,29.7
2018-09-18T10:32:43.488Z,29.8
2018-09-18T10:33:45.504Z,30
2018-09-18T10:34:47.641Z,30.1
2018-09-18T10:35:49.768Z,30.1
2018-09-18T10:36:52.187Z,29.9
2018-09-18T10:37:55.078Z,29.9
2018-09-18T10:38:57.194Z,30
2018-09-18T10:39:59.714Z,30.1
2018-09-18T10:41:01.874Z,30.2
2018-09-18T10:42:03.975Z,30.1
2018-09-18T10:43:06.049Z,29.8
2018-09-18T10:44:08.519Z,30.1
2018-09-18T10:45:10.654Z,30.4
2018-09-18T10:46:12.753Z,30.6
2018-09-18T10:47:21.392Z,30.8
2018-09-18T10:48:24.952Z,30.7
2018-09-18T10:49:27.131Z,30.6
2018-09-18T10:50:29.373Z,30.4
2018-09-18T10:51:31.494Z,30.5
2018-09-18T10:52:34.030Z,30.5
2018-09-18T10:53:36.158Z,30.3
2018-09-18T10:54:38.272Z,30.1
2018-09-18T10:55:41.211Z,30
2018-09-18T10:56:44.696Z,30.1
2018-09-18T10:57:46.822Z,30.2
2018-09-18T10:58:48.949Z,30.1
2018-09-18T10:59:51.085Z,30.2
2018-09-18T11:00:53.208Z,30.3
2018-09-18T11:01:55.357Z,30.4
2018-09-18T11:02:57.480Z,30.7
2018-09-18T11:03:59.977Z,30.7
2018-09-18T11:05:03.169Z,30.7
2018-09-18T11:06:05.630Z,30.8
2018-09-18T11:07:07.842Z,30.8
2018-09-18T11:08:09.992Z,30.8
2018-09-18T11:09:13.138Z,30.9
2018-09-18T11:10:15.679Z,30.9
2018-09-18T11:11:17.814Z,30.7
2018-09-18T11:12:19.922Z,30.6
2018-09-18T11:13:22.385Z,30.6
2018-09-18T11:14:24.454Z,30.7
2018-09-18T11:15:26.638Z,30.7
2018-09-18T11:16:28.705Z,30.8
2018-09-18T11:17:30.823Z,30.9
2018-09-18T11:18:33.035Z,31
2018-09-18T11:19:35.123Z,31.2
2018-09-18T11:20:38.077Z,31.4
2018-09-18T11:21:40.205Z,31.5
2018-09-18T11:22:42.597Z,31.4
2018-09-18T11:23:44.813Z,31.6
2018-09-18T11:24:47.416Z,31.7
2018-09-18T11:25:49.461Z,31.4
2018-09-18T11:26:52.353Z,31.8
2018-09-18T11:27:54.445Z,32
2018-09-18T11:28:56.968Z,31.8
2018-09-18T11:29:59.496Z,32
2018-09-18T11:31:01.632Z,32.1
2018-09-18T11:32:03.748Z,32.1
2018-09-18T11:33:06.207Z,31.9
2018-09-18T11:34:08.288Z,31.8
2018-09-18T11:35:10.747Z,31.7
2018-09-18T11:36:12.869Z,31.6
2018-09-18T11:37:14.991Z,31.9
2018-09-18T11:38:17.138Z,31.7
2018-09-18T11:39:19.572Z,31.7
2018-09-18T11:40:22.532Z,32
2018-09-18T11:41:26.330Z,32
2018-09-18T11:42:30.506Z,31.8
2018-09-18T11:43:35.867Z,31.7
2018-09-18T11:44:38.014Z,32
2018-09-18T11:45:40.697Z,32.1
2018-09-18T11:46:43.717Z,32
2018-09-18T11:47:45.880Z,32
2018-09-18T11:48:48.005Z,31.9
2018-09-18T11:49:50.140Z,32
2018-09-18T11:50:52.259Z,32.3
2018-09-18T11:51:54.394Z,32.3
2018-09-18T11:52:56.644Z,32.1
2018-09-18T11:53:58.639Z,32.3
2018-09-18T11:55:00.778Z,32.2
2018-09-18T11:56:02.898Z,32.1
2018-09-18T11:57:05.109Z,32
2018-09-18T11:58:07.160Z,32.2
2018-09-18T11:59:09.284Z,32.3
2018-09-18T12:00:11.398Z,32.4
2018-09-18T12:01:13.519Z,32.7
2018-09-18T12:02:15.648Z,32.8
2018-09-18T12:03:17.773Z,32.6
2018-09-18T12:04:19.892Z,32.5
2018-09-18T12:05:22.316Z,32.4
2018-09-18T12:06:24.452Z,32.5
2018-09-18T12:07:26.571Z,32.4
2018-09-18T12:08:28.991Z,32.4
2018-09-18T12:09:32.016Z,32.4
2018-09-18T12:10:34.161Z,32.3
2018-09-18T12:11:36.306Z,32.5
2018-09-18T12:12:38.478Z,32.7
2018-09-18T12:13:40.622Z,32.4
2018-09-18T12:14:42.740Z,32.5
2018-09-18T12:15:44.935Z,32.4
2018-09-18T12:16:47.052Z,32.6
2018-09-18T12:17:49.521Z,32.6
2018-09-18T12:18:51.658Z,32.4
2018-09-18T12:19:53.768Z,32.4
2018-09-18T12:20:55.937Z,32.5
2018-09-18T12:21:58.081Z,32.6
2018-09-18T12:23:00.579Z,32.7
2018-09-18T12:24:02.705Z,32.5
2018-09-18T12:25:04.842Z,32.5
2018-09-18T12:26:07.257Z,32.8
2018-09-18T12:27:09.473Z,33
2018-09-18T12:28:11.693Z,33.2
2018-09-18T12:29:13.815Z,32.8
2018-09-18T12:30:15.948Z,32.7
2018-09-18T12:31:18.075Z,33.2
2018-09-18T12:32:20.636Z,33.1
2018-09-18T12:33:22.749Z,32.6
2018-09-18T12:34:25.269Z,32.4
2018-09-18T12:35:27.601Z,32.4
2018-09-18T12:36:29.668Z,32.6
2018-09-18T12:37:32.504Z,32.5
2018-09-18T12:38:34.645Z,32.5
2018-09-18T12:39:36.769Z,32.6
2018-09-18T12:40:38.891Z,32.6
2018-09-18T12:41:41.087Z,32.9
2018-09-18T12:42:43.258Z,33.1
2018-09-18T12:43:45.285Z,33.1
2018-09-18T12:44:47.433Z,33
2018-09-18T12:45:49.555Z,32.6
2018-09-18T12:46:51.680Z,32.4
2018-09-18T12:47:54.120Z,32.5
2018-09-18T12:48:56.501Z,32.6
2018-09-18T12:50:00.568Z,32.6
2018-09-18T12:51:02.296Z,32.4
2018-09-18T12:52:04.416Z,32.3
2018-09-18T12:53:06.677Z,32.3
2018-09-18T12:54:09.215Z,32.2
2018-09-18T12:55:11.700Z,32
2018-09-18T12:56:14.319Z,32.1
2018-09-18T12:57:18.015Z,32.2
2018-09-18T12:58:20.606Z,32.2
2018-09-18T12:59:22.812Z,32.3
2018-09-18T13:00:24.823Z,32.3
2018-09-18T13:01:27.405Z,32.1
2018-09-18T13:02:29.516Z,32
2018-09-18T13:03:31.636Z,32.1
2018-09-18T13:04:33.773Z,32
2018-09-18T13:05:35.914Z,31.8
2018-09-18T13:06:38.133Z,31.9
2018-09-18T13:07:40.158Z,32.3
2018-09-18T13:08:42.281Z,32.2
2018-09-18T13:09:44.407Z,32.3
2018-09-18T13:10:46.707Z,32.3
2018-09-18T13:11:48.870Z,32.1
2018-09-18T13:12:50.990Z,32
2018-09-18T13:13:53.148Z,31.9
2018-09-18T13:14:55.628Z,31.9
2018-09-18T13:15:57.933Z,31.9
2018-09-18T13:17:00.471Z,32.1
2018-09-18T13:18:02.912Z,31.9
2018-09-18T13:19:05.075Z,32.1
2018-09-18T13:20:08.178Z,32.2
2018-09-18T13:21:10.913Z,31.9
2018-09-18T13:22:13.430Z,31.9
2018-09-18T13:23:15.573Z,32
2018-09-18T13:24:17.780Z,32.2
2018-09-18T13:25:19.905Z,32.1
2018-09-18T13:26:22.040Z,31.8
2018-09-18T13:27:24.160Z,32.1
2018-09-18T13:28:26.296Z,32
2018-09-18T13:29:28.415Z,31.8
2018-09-18T13:30:30.597Z,31.7
2018-09-18T13:31:33.196Z,31.8
2018-09-18T13:32:35.450Z,31.8
2018-09-18T13:33:37.569Z,31.8
2018-09-18T13:34:39.685Z,31.9
2018-09-18T13:35:41.818Z,31.8
2018-09-18T13:36:43.949Z,31.6
2018-09-18T13:37:46.075Z,31.7
2018-09-18T13:38:48.490Z,31.7
2018-09-18T13:39:50.631Z,31.7
2018-09-18T13:40:53.396Z,31.5
2018-09-18T13:41:55.843Z,31.4
2018-09-18T13:42:57.974Z,31.5
2018-09-18T13:44:00.090Z,31.6
2018-09-18T13:45:03.482Z,31.5
2018-09-18T13:46:05.627Z,31.5
2018-09-18T13:47:08.427Z,31.5
2018-09-18T13:48:10.553Z,31.5
2018-09-18T13:49:12.772Z,31.4
2018-09-18T13:50:15.698Z,31.4
2018-09-18T13:51:17.735Z,31.4
2018-09-18T13:52:19.869Z,31.5